»·PEaware :: SWA2006 KSJC-KSAN

SWA2006 :: KSJC-KSAN

FLIGHT INFORMATION

Flight Status: Arrived
Operator:
Southwest Airlines
More flights by this operator :: More flights under this callsign
Pilot: Daniel W. (24238)
Aircraft: BOEING 737-800
(B738)
More flights by this aircraft type
Origin: KSJC Mineta San Jose Intl
United States
Destination: KSAN San Diego Intl-Lindbergh
United States
More flights between these airports :: More routes between these airports
Route: TECKY3 EBAYE AVE FIM J1 LAX COMIX2
File this flight plan on PilotEdge
Remarks: PBN / A1D1O1S2T1 NAV / RNVD1E1A1 RNP10 DAT / 1FANSP2PDC DOF / 200108 REG / N8562Z EET / KZLA0020 SEL / BPKQ CODE / ABC058 PER / C
Altitude:
(Current/Filed)
39,000ft
Speed:
(Current/Filed)
449kts
Departed: 08-Jan-20 12:26 PM
Arrived: 08-Jan-20 01:26 PM
Distance/Time
Traveled:
362nm/1:00
Distance/Time
To Go:
Arrived

Flight Plot

Page will automatically refresh every two minutes.

Flight plan parsing failed; only flown route is shown


Map Options




Map Legend


Flown Route
Filed Route
Departure Airport
Arrival Airport
Navaid (VOR, NDB)
Fix

Horizontal Profiles

Position Reports

Time Latitude Longitude Heading Altitude Ground
Speed
08-Jan-20 11:34 37.364000 -121.924292 49 70ft 0kts
08-Jan-20 11:35 37.364000 -121.924292 49 70ft 0kts
08-Jan-20 11:36 37.364000 -121.924292 49 70ft 0kts
08-Jan-20 11:37 37.364000 -121.924292 49 70ft 0kts
08-Jan-20 11:38 37.364000 -121.924292 49 70ft 0kts
08-Jan-20 11:39 37.364000 -121.924292 49 70ft 0kts
08-Jan-20 11:40 37.364000 -121.924292 49 70ft 0kts
08-Jan-20 11:41 37.364000 -121.924292 49 70ft 0kts
08-Jan-20 11:42 37.364000 -121.924292 49 70ft 0kts
08-Jan-20 11:43 37.364000 -121.924292 49 70ft 0kts
08-Jan-20 11:44 37.364000 -121.924292 49 70ft 0kts
08-Jan-20 11:45 37.364000 -121.924292 49 70ft 0kts
08-Jan-20 11:46 37.364000 -121.924292 49 70ft 0kts
08-Jan-20 11:47 37.364000 -121.924292 49 70ft 0kts
08-Jan-20 11:48 37.364000 -121.924292 49 70ft 0kts
08-Jan-20 11:49 37.364000 -121.924292 49 70ft 0kts
08-Jan-20 11:50 37.364000 -121.924292 49 70ft 0kts
08-Jan-20 11:51 37.364000 -121.924292 49 70ft 0kts
08-Jan-20 11:52 37.364000 -121.924292 49 70ft 0kts
08-Jan-20 11:53 37.364000 -121.924292 49 70ft 0kts
08-Jan-20 11:54 37.364000 -121.924292 49 70ft 0kts
08-Jan-20 11:55 37.364000 -121.924292 49 70ft 0kts
08-Jan-20 11:56 37.364000 -121.924292 49 70ft 0kts
08-Jan-20 11:57 37.364000 -121.924292 49 70ft 0kts
08-Jan-20 11:58 37.364000 -121.924292 49 70ft 0kts
08-Jan-20 11:59 37.364000 -121.924292 49 70ft 0kts
08-Jan-20 12:00 37.364000 -121.924292 49 70ft 0kts
08-Jan-20 12:01 37.364000 -121.924292 49 70ft 0kts
08-Jan-20 12:02 37.364000 -121.924292 49 70ft 0kts
08-Jan-20 12:03 37.364000 -121.924292 49 70ft 0kts
08-Jan-20 12:04 37.364000 -121.924292 49 70ft 0kts
08-Jan-20 12:05 37.364000 -121.924292 49 70ft 0kts
08-Jan-20 12:06 37.364000 -121.924292 49 70ft 0kts
08-Jan-20 12:07 37.364000 -121.924292 49 70ft 0kts
08-Jan-20 12:08 37.364000 -121.924292 49 70ft 0kts
08-Jan-20 12:09 37.364000 -121.924292 49 70ft 0kts
08-Jan-20 12:10 37.364000 -121.924292 49 70ft 0kts
08-Jan-20 12:11 37.364000 -121.924292 49 70ft 0kts
08-Jan-20 12:12 37.364000 -121.924292 49 70ft 0kts
08-Jan-20 12:13 37.364000 -121.924292 49 70ft 0kts
08-Jan-20 12:14 37.364000 -121.924292 49 70ft 0kts
08-Jan-20 12:15 37.364000 -121.924292 49 70ft 0kts
08-Jan-20 12:17 37.364000 -121.924292 49 70ft 0kts
08-Jan-20 12:18 37.364000 -121.924292 49 70ft 0kts
08-Jan-20 12:19 37.363846 -121.924540 58 70ft 2kts
08-Jan-20 12:20 37.363714 -121.925265 108 70ft 0kts
08-Jan-20 12:21 37.363714 -121.925265 108 70ft 0kts
08-Jan-20 12:22 37.363714 -121.925265 108 70ft 0kts
08-Jan-20 12:23 37.360576 -121.921810 139 70ft 24kts
08-Jan-20 12:24 37.355436 -121.916198 138 70ft 24kts
08-Jan-20 12:25 37.352821 -121.914818 228 70ft 9kts
08-Jan-20 12:26 37.361573 -121.925467 319 72ft 143kts
08-Jan-20 12:27 37.395000 -121.961216 320 2623ft 177kts
08-Jan-20 12:28 37.437250 -121.942621 72 4870ft 223kts
08-Jan-20 12:29 37.403007 -121.872159 141 5752ft 275kts
08-Jan-20 12:30 37.344893 -121.808550 136 9187ft 283kts
08-Jan-20 12:31 37.283718 -121.735920 139 12080ft 319kts
08-Jan-20 12:32 37.210119 -121.653242 138 13846ft 390kts
08-Jan-20 12:33 37.126857 -121.559419 139 16724ft 412kts
08-Jan-20 12:34 37.039297 -121.461524 140 19397ft 431kts
08-Jan-20 12:35 36.946280 -121.363276 140 21851ft 446kts
08-Jan-20 12:36 36.849851 -121.260952 139 24072ft 460kts
08-Jan-20 12:37 36.751239 -121.155827 140 26053ft 473kts
08-Jan-20 12:37 36.666691 -121.066706 140 27492ft 483kts
08-Jan-20 12:39 36.544315 -120.940055 141 29267ft 497kts
08-Jan-20 12:39 36.454191 -120.848991 141 30402ft 505kts
08-Jan-20 12:40 36.344122 -120.737881 142 31778ft 510kts
08-Jan-20 12:42 36.216932 -120.609047 142 33656ft 505kts
08-Jan-20 12:42 36.126607 -120.518274 143 34919ft 501kts
08-Jan-20 12:44 36.000709 -120.391983 143 36490ft 497kts
08-Jan-20 12:44 35.911125 -120.302807 143 37509ft 495kts
08-Jan-20 12:45 35.810421 -120.187208 134 38543ft 496kts
08-Jan-20 12:47 35.699260 -120.044820 135 39195ft 496kts
08-Jan-20 12:47 35.615118 -119.950341 146 39193ft 490kts
08-Jan-20 12:48 35.503254 -119.854414 148 39197ft 490kts
08-Jan-20 12:49 35.391637 -119.758645 148 39191ft 490kts
08-Jan-20 12:50 35.279913 -119.662294 148 39168ft 490kts
08-Jan-20 12:51 35.168701 -119.566980 148 39161ft 489kts
08-Jan-20 12:52 35.056886 -119.471568 148 39152ft 489kts
08-Jan-20 12:53 34.944697 -119.376293 149 39144ft 496kts
08-Jan-20 12:54 34.831402 -119.280292 148 39129ft 493kts
08-Jan-20 12:55 34.719129 -119.185337 148 39085ft 492kts
08-Jan-20 12:56 34.605579 -119.089709 148 38367ft 491kts
08-Jan-20 12:57 34.492226 -118.994489 148 37573ft 498kts
08-Jan-20 12:58 34.378825 -118.899715 148 36698ft 494kts
08-Jan-20 12:59 34.272732 -118.792528 140 35701ft 501kts
08-Jan-20 13:00 34.168521 -118.681194 140 34662ft 498kts
08-Jan-20 13:01 34.069330 -118.575571 141 32095ft 494kts
08-Jan-20 13:02 33.966258 -118.466854 141 31208ft 495kts
08-Jan-20 13:03 33.869652 -118.350123 134 29883ft 485kts
08-Jan-20 13:04 33.779574 -118.233324 135 27772ft 468kts
08-Jan-20 13:05 33.695531 -118.122636 134 25742ft 454kts
08-Jan-20 13:06 33.611195 -118.012345 134 23682ft 442kts
08-Jan-20 13:07 33.528768 -117.906194 138 21651ft 428kts
08-Jan-20 13:08 33.443490 -117.809044 138 19650ft 416kts
08-Jan-20 13:09 33.358922 -117.718148 141 17712ft 403kts
08-Jan-20 13:10 33.276143 -117.630100 141 15749ft 394kts
08-Jan-20 13:11 33.195094 -117.544346 142 13853ft 384kts
08-Jan-20 13:12 33.114342 -117.463582 149 11982ft 373kts
08-Jan-20 13:13 33.030984 -117.394953 148 10265ft 346kts
08-Jan-20 13:14 32.959873 -117.335340 148 9933ft 283kts
08-Jan-20 13:15 32.896111 -117.282045 148 9123ft 287kts
08-Jan-20 13:16 32.830951 -117.227924 147 7892ft 285kts
08-Jan-20 13:17 32.796476 -117.145049 103 6620ft 288kts
08-Jan-20 13:18 32.777127 -117.056735 106 6210ft 259kts
08-Jan-20 13:19 32.756307 -116.978439 119 6287ft 245kts
08-Jan-20 13:20 32.703418 -116.960689 216 6245ft 203kts
08-Jan-20 13:21 32.689564 -117.021652 285 4211ft 212kts
08-Jan-20 13:22 32.706960 -117.081339 285 3012ft 158kts
08-Jan-20 13:23 32.720225 -117.134703 285 1017ft 162kts
08-Jan-20 13:24 32.731681 -117.181880 283 34ft 141kts
08-Jan-20 13:25 32.734974 -117.198592 207 23ft 7kts
08-Jan-20 13:26 32.733752 -117.194759 106 23ft 10kts
08-Jan-20 13:27 32.731697 -117.195121 222 23ft 5kts
08-Jan-20 13:28 32.731576 -117.195535 257 23ft 0kts
08-Jan-20 13:29 32.731576 -117.195535 257 23ft 0kts
08-Jan-20 13:30 32.731576 -117.195535 257 23ft 0kts
08-Jan-20 13:31 32.731576 -117.195535 257 23ft 0kts
08-Jan-20 13:32 32.731576 -117.195535 257 23ft 0kts
08-Jan-20 13:33 32.731576 -117.195535 257 23ft 0kts
08-Jan-20 13:34 32.731576 -117.195535 257 23ft 0kts
08-Jan-20 13:35 32.731576 -117.195535 257 23ft 0kts

Navigation Log

Ident Type
Flight plan parsing failed, navigation log unavailable